Time;durP1;ratioP1;P1;durP2;ratioP2;P2;SDS_P1;SDS_P2;PMS_P1;PMS_P2;Temp;Humidity;BMP_temperature;BMP_pressure;BME280_temperature;BME280_humidity;BME280_pressure;Samples;Min_cycle;Max_cycle;Signal;HPM_P1;HPM_P2
2021/11/29 00:02:11;;;;;;;;;;;;;;;;;;110972;1276;8053;-74
2021/11/29 00:04:39;;;;;;;;;;;;;;;;;;110956;1276;9698;-74
2021/11/29 00:07:07;;;;;;;;;;;;;;;;;;110952;1274;8370;-74
2021/11/29 00:09:36;;;;;;;;;;;;;;;;;;110494;1278;8383;-73
2021/11/29 00:12:04;;;;;;;;;;;;;;;;;;110816;1277;9788;-75
2021/11/29 00:14:32;;;;;;;;;;;;;;;;;;110932;1274;9704;-75
2021/11/29 00:17:00;;;;;;;;;;;;;;;;;;110976;1276;8359;-74
2021/11/29 00:19:28;;;;;;;;;;;;;;;;;;110947;1274;8795;-74
2021/11/29 00:21:56;;;;;;;;;;;;;;;;;;110968;1276;9695;-74
2021/11/29 00:24:24;;;;;;;;;;;;;;;;;;110817;1274;8071;-74
2021/11/29 00:26:52;;;;;;;;;;;;;;;;;;110565;1276;9701;-74
2021/11/29 00:29:20;;;;;;;;;;;;;;;;;;110983;1276;7963;-73
2021/11/29 00:31:48;;;;;;;;;;;;;;;;;;110952;1276;9689;-74
2021/11/29 00:34:16;;;;;;;;;;;;;;;;;;110958;1276;8887;-74
2021/11/29 00:36:44;;;;;;;;;;;;;;;;;;110955;1276;8074;-73
2021/11/29 00:39:11;;;;;;;;;;;;;;;;;;110950;1275;9694;-74
2021/11/29 00:41:39;;;;;;;;;;;;;;;;;;110978;1274;8375;-74
2021/11/29 00:44:07;;;;;;;;;;;;;;;;;;110964;1276;8054;-74
2021/11/29 00:46:35;;;;;;;;;;;;;;;;;;110947;1275;9687;-74
2021/11/29 00:49:04;;;;;;;;;;;;;;;;;;110929;1276;8094;-74
2021/11/29 00:51:31;;;;;;;;;;;;;;;;;;110995;1275;9690;-74
2021/11/29 00:53:59;;;;;;;;;;;;;;;;;;110956;1274;8008;-75
2021/11/29 00:56:28;;;;;;;;;;;;;;;;;;110973;1274;9687;-75
2021/11/29 00:58:55;;;;;;;;;;;;;;;;;;110980;1275;8816;-74
2021/11/29 01:01:24;;;;;;;;;;;;;;;;;;110947;1275;8384;-74
2021/11/29 01:03:52;;;;;;;;;;;;;;;;;;110958;1274;8383;-73
2021/11/29 01:06:20;;;;;;;;;;;;;;;;;;111003;1276;9698;-74
2021/11/29 01:08:48;;;;;;;;;;;;;;;;;;110990;1274;9001;-74
2021/11/29 01:11:16;;;;;;;;;;;;;;;;;;110465;1278;8807;-74
2021/11/29 01:13:44;;;;;;;;;;;;;;;;;;110997;1276;8830;-74
2021/11/29 01:16:13;;;;;;;;;;;;;;;;;;110984;1276;9714;-75
2021/11/29 01:18:41;;;;;;;;;;;;;;;;;;110940;1274;7963;-74
2021/11/29 01:21:10;;;;;;;;;;;;;;;;;;110973;1276;8921;-74
2021/11/29 01:23:38;;;;;;;;;;;;;;;;;;110983;1276;9784;-74
2021/11/29 01:26:06;;;;;;;;;;;;;;;;;;110964;1274;9697;-74
2021/11/29 01:28:34;;;;;;;;;;;;;;;;;;110942;1273;8173;-74
2021/11/29 01:31:03;;;;;;;;;;;;;;;;;;110951;1275;8804;-75
2021/11/29 01:33:31;;;;;;;;;;;;;;;;;;110420;1278;9694;-73
2021/11/29 01:35:59;;;;;;;;;;;;;;;;;;110979;1276;7999;-74
2021/11/29 01:38:27;;;;;;;;;;;;;;;;;;110965;1276;8782;-74
2021/11/29 01:40:55;;;;;;;;;;;;;;;;;;110955;1276;9706;-74
2021/11/29 01:43:23;;;;;;;;;;;;;;;;;;110827;1276;7990;-74
2021/11/29 01:45:54;;;;;;;;;;;;;;;;;;110934;1274;7991;-74
2021/11/29 01:48:23;;;;;;;;;;;;;;;;;;110963;1276;9726;-74
2021/11/29 01:50:53;;;;;;;;;;;;;;;;;;110806;1275;7954;-74
2021/11/29 01:53:22;;;;;;;;;;;;;;;;;;110947;1274;8781;-75
2021/11/29 01:55:52;;;;;;;;;;;;;;;;;;110928;1274;9715;-75
2021/11/29 01:58:20;;;;;;;;;;;;;;;;;;110958;1274;8669;-75
2021/11/29 02:00:50;;;;;;;;;;;;;;;;;;110970;1276;8770;-75
2021/11/29 02:03:23;;;;;;;;;;;;;;;;;;110912;1275;9775;-75
2021/11/29 02:05:52;;;;;;;;;;;;;;;;;;110553;1276;9134;-73
2021/11/29 02:08:20;;;;;;;;;;;;;;;;;;110936;1275;7963;-74
2021/11/29 02:10:48;;;;;;;;;;;;;;;;;;110924;1276;9782;-75
2021/11/29 02:13:17;;;;;;;;;;;;;;;;;;110968;1276;8375;-75
2021/11/29 02:15:50;;;;;;;;;;;;;;;;;;110926;1274;8014;-74
2021/11/29 02:18:24;;;;;;;;;;;;;;;;;;110970;1274;7995;-75
2021/11/29 02:20:58;;;;;;;;;;;;;;;;;;110959;1276;9721;-74
2021/11/29 02:23:26;;;;;;;;;;;;;;;;;;110936;1276;8808;-73
2021/11/29 02:25:54;;;;;;;;;;;;;;;;;;110956;1275;9740;-74
2021/11/29 02:28:24;;;;;;;;;;;;;;;;;;110949;1276;7977;-74
2021/11/29 02:30:52;;;;;;;;;;;;;;;;;;110972;1274;9690;-74
2021/11/29 02:33:20;;;;;;;;;;;;;;;;;;110965;1276;9706;-74
2021/11/29 02:35:47;;;;;;;;;;;;;;;;;;110558;1276;9694;-75
2021/11/29 02:38:15;;;;;;;;;;;;;;;;;;110951;1274;7942;-74
2021/11/29 02:40:43;;;;;;;;;;;;;;;;;;110503;1278;9710;-74
2021/11/29 02:43:12;;;;;;;;;;;;;;;;;;110951;1274;8883;-75
2021/11/29 02:45:39;;;;;;;;;;;;;;;;;;110948;1275;7971;-74
2021/11/29 02:48:09;;;;;;;;;;;;;;;;;;110962;1275;8883;-74
2021/11/29 02:50:38;;;;;;;;;;;;;;;;;;110391;1279;8929;-74
2021/11/29 02:53:12;;;;;;;;;;;;;;;;;;110807;1276;8017;-74
2021/11/29 02:55:40;;;;;;;;;;;;;;;;;;110795;1276;9690;-74
2021/11/29 02:58:08;;;;;;;;;;;;;;;;;;110955;1276;9697;-74
2021/11/29 03:00:36;;;;;;;;;;;;;;;;;;110506;1278;7970;-74
2021/11/29 03:03:06;;;;;;;;;;;;;;;;;;110930;1276;8782;-73
2021/11/29 03:05:35;;;;;;;;;;;;;;;;;;110459;1277;8019;-73
2021/11/29 03:08:03;;;;;;;;;;;;;;;;;;110727;1276;8867;-74
2021/11/29 03:10:32;;;;;;;;;;;;;;;;;;110966;1276;9736;-74
2021/11/29 03:13:00;;;;;;;;;;;;;;;;;;110965;1274;8008;-74
2021/11/29 03:15:28;;;;;;;;;;;;;;;;;;110973;1274;9698;-74
2021/11/29 03:17:55;;;;;;;;;;;;;;;;;;110975;1276;8870;-74
2021/11/29 03:20:23;;;;;;;;;;;;;;;;;;110959;1274;9698;-73
2021/11/29 03:22:51;;;;;;;;;;;;;;;;;;110944;1274;8777;-74
2021/11/29 03:25:19;;;;;;;;;;;;;;;;;;110973;1274;9726;-74
2021/11/29 03:27:47;;;;;;;;;;;;;;;;;;110983;1276;8868;-74
2021/11/29 03:30:15;;;;;;;;;;;;;;;;;;110941;1276;8937;-73
2021/11/29 03:32:43;;;;;;;;;;;;;;;;;;110952;1274;9711;-74
2021/11/29 03:35:11;;;;;;;;;;;;;;;;;;110941;1276;7979;-74
2021/11/29 03:37:39;;;;;;;;;;;;;;;;;;110957;1275;9713;-74
2021/11/29 03:40:08;;;;;;;;;;;;;;;;;;110938;1274;8062;-75
2021/11/29 03:42:36;;;;;;;;;;;;;;;;;;110961;1275;9701;-74
2021/11/29 03:45:04;;;;;;;;;;;;;;;;;;110935;1274;7978;-73
2021/11/29 03:47:32;;;;;;;;;;;;;;;;;;110975;1275;8008;-74
2021/11/29 03:50:00;;;;;;;;;;;;;;;;;;110966;1274;9819;-74
2021/11/29 03:52:28;;;;;;;;;;;;;;;;;;110966;1276;9390;-75
2021/11/29 03:54:55;;;;;;;;;;;;;;;;;;110939;1275;7984;-74
2021/11/29 03:57:23;;;;;;;;;;;;;;;;;;110926;1276;8786;-73
2021/11/29 03:59:51;;;;;;;;;;;;;;;;;;110946;1274;8998;-74
2021/11/29 04:02:19;;;;;;;;;;;;;;;;;;110781;1276;9709;-74
2021/11/29 04:04:47;;;;;;;;;;;;;;;;;;110966;1276;8009;-74
2021/11/29 04:07:15;;;;;;;;;;;;;;;;;;110910;1275;9689;-72
2021/11/29 04:09:43;;;;;;;;;;;;;;;;;;110473;1278;9696;-74
2021/11/29 04:12:10;;;;;;;;;;;;;;;;;;110731;1276;8372;-74
2021/11/29 04:14:38;;;;;;;;;;;;;;;;;;110956;1276;8808;-74
2021/11/29 04:17:06;;;;;;;;;;;;;;;;;;110942;1276;8376;-73
2021/11/29 04:19:41;;;;;;;;;;;;;;;;;;110950;1275;7968;-73
2021/11/29 04:22:10;;;;;;;;;;;;;;;;;;110965;1276;8003;-74
2021/11/29 04:24:40;;;;;;;;;;;;;;;;;;110950;1274;9709;-74
2021/11/29 04:27:09;;;;;;;;;;;;;;;;;;110964;1276;8008;-76
2021/11/29 04:29:45;;;;;;;;;;;;;;;;;;110799;1273;8783;-75
2021/11/29 04:32:13;;;;;;;;;;;;;;;;;;110932;1276;9718;-76
2021/11/29 04:34:40;;;;;;;;;;;;;;;;;;110979;1275;8359;-74
2021/11/29 04:37:08;;;;;;;;;;;;;;;;;;110939;1275;8773;-73
2021/11/29 04:39:36;;;;;;;;;;;;;;;;;;110812;1273;187666;-74
2021/11/29 04:42:05;;;;;;;;;;;;;;;;;;110959;1276;9722;-74
2021/11/29 04:44:33;;;;;;;;;;;;;;;;;;110999;1274;8008;-74
2021/11/29 04:47:00;;;;;;;;;;;;;;;;;;110949;1275;8784;-74
2021/11/29 04:49:28;;;;;;;;;;;;;;;;;;110615;1276;9250;-74
2021/11/29 04:51:56;;;;;;;;;;;;;;;;;;110937;1274;9360;-73
2021/11/29 04:54:24;;;;;;;;;;;;;;;;;;110954;1275;9706;-74
2021/11/29 04:56:52;;;;;;;;;;;;;;;;;;110840;1276;7986;-74
2021/11/29 04:59:19;;;;;;;;;;;;;;;;;;110979;1274;9687;-74
2021/11/29 05:01:47;;;;;;;;;;;;;;;;;;110949;1275;9690;-75
2021/11/29 05:04:15;;;;;;;;;;;;;;;;;;110953;1275;8017;-74
2021/11/29 05:06:43;;;;;;;;;;;;;;;;;;110948;1273;9744;-74
2021/11/29 05:09:11;;;;;;;;;;;;;;;;;;110953;1274;7949;-74
2021/11/29 05:11:40;;;;;;;;;;;;;;;;;;110959;1274;9705;-74
2021/11/29 05:14:08;;;;;;;;;;;;;;;;;;110984;1276;7962;-74
2021/11/29 05:16:38;;;;;;;;;;;;;;;;;;110976;1274;8804;-73
2021/11/29 05:19:10;;;;;;;;;;;;;;;;;;110947;1274;8953;-74
2021/11/29 05:21:38;;;;;;;;;;;;;;;;;;110963;1275;9687;-75
2021/11/29 05:24:06;;;;;;;;;;;;;;;;;;111001;1275;8105;-74
2021/11/29 05:26:34;;;;;;;;;;;;;;;;;;110946;1276;9701;-75
2021/11/29 05:29:02;;;;;;;;;;;;;;;;;;110959;1276;8770;-73
2021/11/29 05:31:30;;;;;;;;;;;;;;;;;;110947;1274;9687;-73
2021/11/29 05:33:58;;;;;;;;;;;;;;;;;;110940;1274;8074;-73
2021/11/29 05:36:26;;;;;;;;;;;;;;;;;;110961;1274;8964;-74
2021/11/29 05:38:54;;;;;;;;;;;;;;;;;;110962;1276;9033;-74
2021/11/29 05:41:21;;;;;;;;;;;;;;;;;;110960;1274;9707;-73
2021/11/29 05:43:49;;;;;;;;;;;;;;;;;;110924;1274;8371;-74
2021/11/29 05:46:21;;;;;;;;;;;;;;;;;;110728;1276;8942;-74
2021/11/29 05:48:50;;;;;;;;;;;;;;;;;;110945;1274;8937;-74
2021/11/29 05:51:19;;;;;;;;;;;;;;;;;;110772;1275;9687;-74
2021/11/29 05:53:47;;;;;;;;;;;;;;;;;;110782;1277;8372;-74
2021/11/29 05:56:15;;;;;;;;;;;;;;;;;;110933;1274;9707;-74
2021/11/29 05:58:43;;;;;;;;;;;;;;;;;;110960;1275;8082;-74
2021/11/29 06:01:11;;;;;;;;;;;;;;;;;;110785;1277;8003;-74
2021/11/29 06:03:39;;;;;;;;;;;;;;;;;;110963;1274;9713;-74
2021/11/29 06:06:07;;;;;;;;;;;;;;;;;;110951;1276;8181;-74
2021/11/29 06:08:39;;;;;;;;;;;;;;;;;;110812;1276;8924;-74
2021/11/29 06:11:06;;;;;;;;;;;;;;;;;;110829;1277;9709;-75
2021/11/29 06:13:34;;;;;;;;;;;;;;;;;;110776;1275;9693;-74
2021/11/29 06:16:02;;;;;;;;;;;;;;;;;;110541;1277;7960;-74
2021/11/29 06:18:31;;;;;;;;;;;;;;;;;;110799;1275;9045;-73
2021/11/29 06:20:59;;;;;;;;;;;;;;;;;;110975;1274;7973;-74
2021/11/29 06:23:27;;;;;;;;;;;;;;;;;;110941;1276;8943;-75
2021/11/29 06:25:55;;;;;;;;;;;;;;;;;;110938;1274;8358;-73
2021/11/29 06:28:22;;;;;;;;;;;;;;;;;;110943;1274;9698;-74
2021/11/29 06:30:50;;;;;;;;;;;;;;;;;;110959;1276;9690;-74
2021/11/29 06:33:18;;;;;;;;;;;;;;;;;;110964;1274;9696;-74
2021/11/29 06:35:46;;;;;;;;;;;;;;;;;;110771;1277;8805;-75
2021/11/29 06:38:14;;;;;;;;;;;;;;;;;;110505;1276;9696;-75
2021/11/29 06:40:49;;;;;;;;;;;;;;;;;;110947;1275;7984;-73
2021/11/29 06:43:18;;;;;;;;;;;;;;;;;;110962;1276;9688;-74
2021/11/29 06:45:46;;;;;;;;;;;;;;;;;;110942;1276;7950;-74
2021/11/29 06:48:14;;;;;;;;;;;;;;;;;;110407;1277;8811;-73
2021/11/29 06:50:43;;;;;;;;;;;;;;;;;;110468;1277;9702;-74
2021/11/29 06:53:11;;;;;;;;;;;;;;;;;;110783;1277;8032;-74
2021/11/29 06:55:38;;;;;;;;;;;;;;;;;;110949;1275;8948;-74
2021/11/29 06:58:06;;;;;;;;;;;;;;;;;;110964;1274;8047;-74
2021/11/29 07:00:34;;;;;;;;;;;;;;;;;;110916;1274;8784;-74
2021/11/29 07:03:03;;;;;;;;;;;;;;;;;;110811;1276;9416;-74
2021/11/29 07:05:31;;;;;;;;;;;;;;;;;;110982;1275;8373;-74
2021/11/29 07:07:59;;;;;;;;;;;;;;;;;;110993;1276;9703;-75
2021/11/29 07:10:28;;;;;;;;;;;;;;;;;;110976;1275;7954;-75
2021/11/29 07:12:57;;;;;;;;;;;;;;;;;;110979;1275;8117;-75
2021/11/29 07:15:26;;;;;;;;;;;;;;;;;;110979;1274;9723;-74
2021/11/29 07:17:53;;;;;;;;;;;;;;;;;;110965;1275;9698;-74
2021/11/29 07:20:21;;;;;;;;;;;;;;;;;;110967;1274;8137;-74
2021/11/29 07:22:49;;;;;;;;;;;;;;;;;;110963;1275;8001;-74
2021/11/29 07:25:18;;;;;;;;;;;;;;;;;;110940;1275;8801;-73
2021/11/29 07:27:46;;;;;;;;;;;;;;;;;;110993;1275;7949;-74
2021/11/29 07:30:19;;;;;;;;;;;;;;;;;;111015;1274;9708;-74
2021/11/29 07:32:47;;;;;;;;;;;;;;;;;;111009;1276;8779;-75
2021/11/29 07:35:15;;;;;;;;;;;;;;;;;;110960;1276;10120;-75
2021/11/29 07:37:43;;;;;;;;;;;;;;;;;;110958;1276;8808;-74
2021/11/29 07:40:11;;;;;;;;;;;;;;;;;;110966;1275;8381;-74
2021/11/29 07:42:39;;;;;;;;;;;;;;;;;;110983;1275;8375;-75
2021/11/29 07:45:12;;;;;;;;;;;;;;;;;;110951;1276;8923;-74
2021/11/29 07:47:41;;;;;;;;;;;;;;;;;;110981;1275;8794;-74
2021/11/29 07:50:11;;;;;;;;;;;;;;;;;;110909;1276;9785;-75
2021/11/29 07:52:39;;;;;;;;;;;;;;;;;;110799;1275;9689;-75
2021/11/29 07:55:09;;;;;;;;;;;;;;;;;;110824;1277;8375;-75
2021/11/29 07:57:38;;;;;;;;;;;;;;;;;;110773;1275;9716;-75
2021/11/29 08:00:17;;;;;;;;;;;;;;;;;;110784;1275;9687;-74
2021/11/29 08:02:46;;;;;;;;;;;;;;;;;;110814;1277;9025;-74
2021/11/29 08:05:14;;;;;;;;;;;;;;;;;;110800;1275;9693;-74
2021/11/29 08:07:42;;;;;;;;;;;;;;;;;;110812;1275;7965;-74
2021/11/29 08:10:10;;;;;;;;;;;;;;;;;;110822;1277;8949;-74
2021/11/29 08:12:38;;;;;;;;;;;;;;;;;;110788;1276;8784;-74
2021/11/29 08:15:07;;;;;;;;;;;;;;;;;;110789;1277;9740;-74
2021/11/29 08:17:35;;;;;;;;;;;;;;;;;;110780;1277;8027;-76
2021/11/29 08:20:04;;;;;;;;;;;;;;;;;;110801;1275;9705;-74
2021/11/29 08:22:32;;;;;;;;;;;;;;;;;;110814;1276;9713;-74
2021/11/29 08:25:01;;;;;;;;;;;;;;;;;;110776;1277;9690;-74
2021/11/29 08:27:29;;;;;;;;;;;;;;;;;;110779;1277;7968;-73
2021/11/29 08:29:57;;;;;;;;;;;;;;;;;;110812;1276;9313;-75
2021/11/29 08:32:25;;;;;;;;;;;;;;;;;;110498;1279;8798;-72
2021/11/29 08:34:53;;;;;;;;;;;;;;;;;;110511;1274;9697;-73
2021/11/29 08:37:20;;;;;;;;;;;;;;;;;;110497;1277;7978;-74
2021/11/29 08:39:48;;;;;;;;;;;;;;;;;;110500;1278;8941;-74
2021/11/29 08:42:16;;;;;;;;;;;;;;;;;;110507;1278;8190;-75
2021/11/29 08:44:44;;;;;;;;;;;;;;;;;;110524;1278;8785;-75
2021/11/29 08:47:12;;;;;;;;;;;;;;;;;;110507;1276;8010;-75
2021/11/29 08:49:43;;;;;;;;;;;;;;;;;;110383;1276;8791;-74
2021/11/29 08:52:12;;;;;;;;;;;;;;;;;;110723;1277;9704;-73
2021/11/29 08:54:40;;;;;;;;;;;;;;;;;;110962;1274;7960;-74
2021/11/29 08:57:10;;;;;;;;;;;;;;;;;;110986;1276;8930;-74
2021/11/29 08:59:38;;;;;;;;;;;;;;;;;;110946;1276;9687;-74
2021/11/29 09:02:06;;;;;;;;;;;;;;;;;;110964;1274;8371;-74
2021/11/29 09:04:34;;;;;;;;;;;;;;;;;;110933;1274;7997;-74
2021/11/29 09:07:02;;;;;;;;;;;;;;;;;;110950;1274;9676;-74
2021/11/29 09:09:32;;;;;;;;;;;;;;;;;;110776;1277;8940;-74
2021/11/29 09:12:01;;;;;;;;;;;;;;;;;;110757;1275;8009;-74
2021/11/29 09:14:29;;;;;;;;;;;;;;;;;;110774;1277;9117;-74
2021/11/29 09:16:57;;;;;;;;;;;;;;;;;;110808;1277;8955;-74
2021/11/29 09:19:26;;;;;;;;;;;;;;;;;;110793;1277;9698;-74
2021/11/29 09:21:54;;;;;;;;;;;;;;;;;;110769;1277;8365;-74
2021/11/29 09:24:25;;;;;;;;;;;;;;;;;;110793;1277;8479;-74
2021/11/29 09:26:53;;;;;;;;;;;;;;;;;;110836;1277;8855;-74
2021/11/29 09:29:21;;;;;;;;;;;;;;;;;;110854;1277;8375;-73
2021/11/29 09:31:49;;;;;;;;;;;;;;;;;;110769;1275;9698;-74
2021/11/29 09:34:16;;;;;;;;;;;;;;;;;;110793;1275;8953;-74
2021/11/29 09:36:44;;;;;;;;;;;;;;;;;;110759;1277;9709;-75
2021/11/29 09:39:12;;;;;;;;;;;;;;;;;;110800;1277;8009;-74
2021/11/29 09:41:40;;;;;;;;;;;;;;;;;;110800;1277;8784;-75
2021/11/29 09:44:08;;;;;;;;;;;;;;;;;;110785;1275;9719;-73
2021/11/29 09:46:36;;;;;;;;;;;;;;;;;;110807;1277;8373;-74
2021/11/29 09:49:04;;;;;;;;;;;;;;;;;;110765;1277;9727;-75
2021/11/29 09:51:34;;;;;;;;;;;;;;;;;;110784;1277;8808;-73
2021/11/29 09:54:03;;;;;;;;;;;;;;;;;;110700;1277;7953;-75
2021/11/29 09:56:31;;;;;;;;;;;;;;;;;;110922;1276;9729;-75
2021/11/29 09:58:59;;;;;;;;;;;;;;;;;;111087;1275;8980;-75
2021/11/29 10:01:28;;;;;;;;;;;;;;;;;;110802;1275;9691;-73
2021/11/29 10:04:02;;;;;;;;;;;;;;;;;;110916;1274;8365;-74
2021/11/29 10:06:30;;;;;;;;;;;;;;;;;;111080;1275;8995;-74
2021/11/29 10:08:58;;;;;;;;;;;;;;;;;;111079;1275;8368;-75
2021/11/29 10:11:30;;;;;;;;;;;;;;;;;;110967;1276;9701;-75
2021/11/29 10:14:04;;;;;;;;;;;;;;;;;;111084;1273;9690;-75
2021/11/29 10:16:44;;;;;;;;;;;;;;;;;;111095;1274;9687;-75
2021/11/29 10:19:18;;;;;;;;;;;;;;;;;;110803;1277;9721;-75
2021/11/29 10:21:46;;;;;;;;;;;;;;;;;;110774;1277;8011;-74
2021/11/29 10:24:18;;;;;;;;;;;;;;;;;;110801;1277;9706;-73
2021/11/29 10:26:51;;;;;;;;;;;;;;;;;;110786;1277;9687;-74
2021/11/29 10:29:23;;;;;;;;;;;;;;;;;;110813;1277;9694;-74
2021/11/29 10:31:53;;;;;;;;;;;;;;;;;;110566;1277;8021;-74
2021/11/29 10:34:26;;;;;;;;;;;;;;;;;;110797;1275;8110;-74
2021/11/29 10:36:57;;;;;;;;;;;;;;;;;;110775;1277;8359;-74
2021/11/29 10:39:28;;;;;;;;;;;;;;;;;;110814;1277;9787;-74
2021/11/29 10:42:01;;;;;;;;;;;;;;;;;;110752;1277;8407;-74
2021/11/29 10:44:31;;;;;;;;;;;;;;;;;;110796;1277;8773;-76
2021/11/29 10:47:02;;;;;;;;;;;;;;;;;;110767;1277;8606;-75
2021/11/29 10:49:31;;;;;;;;;;;;;;;;;;110788;1276;9682;-74
2021/11/29 10:52:01;;;;;;;;;;;;;;;;;;110798;1276;9019;-74
2021/11/29 10:54:31;;;;;;;;;;;;;;;;;;110772;1277;8492;-74
2021/11/29 10:57:00;;;;;;;;;;;;;;;;;;110814;1277;7979;-74
2021/11/29 10:59:29;;;;;;;;;;;;;;;;;;110815;1277;8846;-74
2021/11/29 11:01:58;;;;;;;;;;;;;;;;;;110597;1277;9691;-74
2021/11/29 11:04:46;;;;;;;;;;;;;;;;;;110771;1277;8015;-76
2021/11/29 11:07:24;;;;;;;;;;;;;;;;;;110753;1277;9690;-75
2021/11/29 11:09:57;;;;;;;;;;;;;;;;;;110974;1274;9703;-74
2021/11/29 11:12:28;;;;;;;;;;;;;;;;;;110917;1276;8971;-74
2021/11/29 11:15:16;;;;;;;;;;;;;;;;;;110969;1274;8370;-74
2021/11/29 11:18:02;;;;;;;;;;;;;;;;;;110958;1276;8987;-74
2021/11/29 11:20:30;;;;;;;;;;;;;;;;;;110968;1274;9685;-75
2021/11/29 11:22:58;;;;;;;;;;;;;;;;;;110958;1273;7959;-73
2021/11/29 11:25:32;;;;;;;;;;;;;;;;;;110993;1276;9690;-74
2021/11/29 11:28:09;;;;;;;;;;;;;;;;;;110970;1276;8947;-73
2021/11/29 11:30:43;;;;;;;;;;;;;;;;;;110986;1274;9693;-74
2021/11/29 11:33:15;;;;;;;;;;;;;;;;;;110952;1274;9700;-75
2021/11/29 11:36:03;;;;;;;;;;;;;;;;;;110841;1276;8846;-75
2021/11/29 11:38:31;;;;;;;;;;;;;;;;;;110483;1277;8962;-73
2021/11/29 11:40:59;;;;;;;;;;;;;;;;;;110985;1276;9687;-73
2021/11/29 11:43:27;;;;;;;;;;;;;;;;;;110437;1279;8904;-74
2021/11/29 11:45:55;;;;;;;;;;;;;;;;;;110801;1276;9690;-74
2021/11/29 11:48:24;;;;;;;;;;;;;;;;;;110787;1277;8370;-74
2021/11/29 11:51:11;;;;;;;;;;;;;;;;;;110961;1274;9713;-74
2021/11/29 11:53:40;;;;;;;;;;;;;;;;;;110950;1274;9689;-74
2021/11/29 11:56:07;;;;;;;;;;;;;;;;;;110974;1274;8002;-75
2021/11/29 11:58:42;;;;;;;;;;;;;;;;;;110959;1274;8802;-74
2021/11/29 12:01:16;;;;;;;;;;;;;;;;;;110962;1274;8910;-74
2021/11/29 12:03:48;;;;;;;;;;;;;;;;;;110821;1277;8805;-74
2021/11/29 12:06:18;;;;;;;;;;;;;;;;;;110928;1274;8116;-74
2021/11/29 12:08:48;;;;;;;;;;;;;;;;;;110942;1276;9707;-74
2021/11/29 12:11:29;;;;;;;;;;;;;;;;;;110951;1274;9676;-74
2021/11/29 12:14:01;;;;;;;;;;;;;;;;;;110963;1274;9698;-73
2021/11/29 12:16:39;;;;;;;;;;;;;;;;;;110976;1274;8007;-74
2021/11/29 12:19:25;;;;;;;;;;;;;;;;;;110954;1276;9002;-73
2021/11/29 12:21:58;;;;;;;;;;;;;;;;;;110815;1277;8773;-74
2021/11/29 12:24:46;;;;;;;;;;;;;;;;;;110478;1277;9777;-75
2021/11/29 12:27:15;;;;;;;;;;;;;;;;;;110907;1274;8375;-75
2021/11/29 12:30:03;;;;;;;;;;;;;;;;;;110783;1274;9278;-74
2021/11/29 12:32:31;;;;;;;;;;;;;;;;;;110964;1274;8028;-75
2021/11/29 12:35:19;;;;;;;;;;;;;;;;;;110934;1275;8937;-75
2021/11/29 12:38:07;;;;;;;;;;;;;;;;;;110970;1274;8953;-75
2021/11/29 12:40:43;;;;;;;;;;;;;;;;;;110779;1273;231629;-74
2021/11/29 12:43:12;;;;;;;;;;;;;;;;;;110490;1279;9690;-73
2021/11/29 12:45:40;;;;;;;;;;;;;;;;;;110954;1276;7961;-73
2021/11/29 12:48:28;;;;;;;;;;;;;;;;;;110945;1276;8880;-74
2021/11/29 12:50:56;;;;;;;;;;;;;;;;;;110938;1276;9692;-74
2021/11/29 12:53:27;;;;;;;;;;;;;;;;;;110970;1276;8005;-74
2021/11/29 12:56:04;;;;;;;;;;;;;;;;;;110968;1276;9696;-74
2021/11/29 12:58:33;;;;;;;;;;;;;;;;;;110974;1276;8713;-75
2021/11/29 13:01:04;;;;;;;;;;;;;;;;;;110933;1276;9688;-74
2021/11/29 13:03:34;;;;;;;;;;;;;;;;;;110958;1272;9709;-74
2021/11/29 13:06:08;;;;;;;;;;;;;;;;;;110821;1276;9782;-76
2021/11/29 13:08:44;;;;;;;;;;;;;;;;;;110947;1276;7980;-77
2021/11/29 13:11:11;;;;;;;;;;;;;;;;;;110949;1276;8827;-73
2021/11/29 13:13:39;;;;;;;;;;;;;;;;;;110934;1274;9705;-73
2021/11/29 13:16:13;;;;;;;;;;;;;;;;;;110816;1277;10121;-74
2021/11/29 13:18:41;;;;;;;;;;;;;;;;;;110808;1277;9691;-73
2021/11/29 13:21:10;;;;;;;;;;;;;;;;;;110497;1278;8955;-74
2021/11/29 13:24:04;;;;;;;;;;;;;;;;;;110541;1277;8011;-74
2021/11/29 13:26:51;;;;;;;;;;;;;;;;;;110939;1275;8767;-74
2021/11/29 13:29:38;;;;;;;;;;;;;;;;;;110964;1276;8781;-75
2021/11/29 13:32:11;;;;;;;;;;;;;;;;;;110951;1276;8407;-73
2021/11/29 13:35:04;;;;;;;;;;;;;;;;;;110954;1274;8473;-74
2021/11/29 13:37:38;;;;;;;;;;;;;;;;;;110958;1276;8781;-74
2021/11/29 13:40:13;;;;;;;;;;;;;;;;;;110832;1276;8784;-74
2021/11/29 13:42:43;;;;;;;;;;;;;;;;;;110955;1276;8369;-74
2021/11/29 13:45:34;;;;;;;;;;;;;;;;;;110939;1276;8782;-74
2021/11/29 13:48:28;;;;;;;;;;;;;;;;;;110930;1276;10196;-74
2021/11/29 13:50:56;;;;;;;;;;;;;;;;;;110957;1276;8781;-74
2021/11/29 13:53:29;;;;;;;;;;;;;;;;;;110957;1274;8374;-74
2021/11/29 13:55:58;;;;;;;;;;;;;;;;;;110961;1275;9690;-73
2021/11/29 13:58:29;;;;;;;;;;;;;;;;;;110954;1275;8371;-74
2021/11/29 14:01:00;;;;;;;;;;;;;;;;;;110960;1276;9690;-74
2021/11/29 14:03:34;;;;;;;;;;;;;;;;;;110940;1274;8043;-75
2021/11/29 14:06:05;;;;;;;;;;;;;;;;;;110947;1276;8059;-74
2021/11/29 14:08:53;;;;;;;;;;;;;;;;;;110983;1276;9703;-74
2021/11/29 14:11:28;;;;;;;;;;;;;;;;;;111020;1276;9693;-76
2021/11/29 14:14:09;;;;;;;;;;;;;;;;;;110929;1275;9753;-75
2021/11/29 14:16:51;;;;;;;;;;;;;;;;;;110939;1276;8942;-75
2021/11/29 14:19:27;;;;;;;;;;;;;;;;;;110928;1274;8833;-75
2021/11/29 14:21:58;;;;;;;;;;;;;;;;;;110951;1274;8132;-74
2021/11/29 14:24:32;;;;;;;;;;;;;;;;;;110827;1276;8772;-77
2021/11/29 14:27:03;;;;;;;;;;;;;;;;;;110965;1276;8371;-74
2021/11/29 14:29:38;;;;;;;;;;;;;;;;;;110960;1276;9739;-72
2021/11/29 14:32:06;;;;;;;;;;;;;;;;;;110792;1277;9694;-74
2021/11/29 14:34:57;;;;;;;;;;;;;;;;;;110460;1276;8361;-74
2021/11/29 14:37:38;;;;;;;;;;;;;;;;;;110932;1274;8808;-75
2021/11/29 14:40:08;;;;;;;;;;;;;;;;;;110792;1277;8005;-74
2021/11/29 14:42:38;;;;;;;;;;;;;;;;;;110446;1279;7975;-74
2021/11/29 14:45:11;;;;;;;;;;;;;;;;;;110834;1276;8987;-74
2021/11/29 14:47:41;;;;;;;;;;;;;;;;;;110945;1275;9690;-75
2021/11/29 14:50:09;;;;;;;;;;;;;;;;;;110384;1279;9731;-73
2021/11/29 14:52:39;;;;;;;;;;;;;;;;;;110146;1278;8460;-73
2021/11/29 14:55:10;;;;;;;;;;;;;;;;;;110436;1279;8759;-74
2021/11/29 14:57:45;;;;;;;;;;;;;;;;;;110214;1278;9693;-75
2021/11/29 15:00:14;;;;;;;;;;;;;;;;;;110417;1278;8454;-73
2021/11/29 15:02:43;;;;;;;;;;;;;;;;;;110446;1277;8964;-75
2021/11/29 15:05:15;;;;;;;;;;;;;;;;;;110146;1279;7934;-75
2021/11/29 15:07:44;;;;;;;;;;;;;;;;;;110125;1277;8787;-74
2021/11/29 15:10:18;;;;;;;;;;;;;;;;;;110375;1278;9691;-74
2021/11/29 15:12:51;;;;;;;;;;;;;;;;;;110141;1278;8788;-74
2021/11/29 15:15:25;;;;;;;;;;;;;;;;;;110419;1278;8488;-73
2021/11/29 15:17:54;;;;;;;;;;;;;;;;;;110273;1279;8165;-73
2021/11/29 15:20:28;;;;;;;;;;;;;;;;;;110487;1278;9135;-74
2021/11/29 15:22:58;;;;;;;;;;;;;;;;;;110483;1278;8103;-74
2021/11/29 15:25:27;;;;;;;;;;;;;;;;;;110279;1279;8780;-73
2021/11/29 15:28:06;;;;;;;;;;;;;;;;;;110251;1278;8813;-74
2021/11/29 15:30:38;;;;;;;;;;;;;;;;;;110345;1279;8903;-74
2021/11/29 15:33:11;;;;;;;;;;;;;;;;;;110478;1278;7975;-74
2021/11/29 15:35:42;;;;;;;;;;;;;;;;;;110457;1277;9724;-74
2021/11/29 15:38:11;;;;;;;;;;;;;;;;;;110458;1278;8794;-74
2021/11/29 15:40:43;;;;;;;;;;;;;;;;;;110471;1276;8795;-74
2021/11/29 15:43:29;;;;;;;;;;;;;;;;;;110251;1278;9106;-73
2021/11/29 15:46:05;;;;;;;;;;;;;;;;;;110453;1278;8933;-74
2021/11/29 15:48:38;;;;;;;;;;;;;;;;;;110250;1278;9789;-74
2021/11/29 15:51:09;;;;;;;;;;;;;;;;;;110525;1277;9500;-75
2021/11/29 15:53:40;;;;;;;;;;;;;;;;;;110515;1278;9697;-74
2021/11/29 15:56:10;;;;;;;;;;;;;;;;;;110693;1275;9697;-74
2021/11/29 15:58:39;;;;;;;;;;;;;;;;;;110459;1276;7969;-74
2021/11/29 16:01:12;;;;;;;;;;;;;;;;;;110305;1277;8937;-75
2021/11/29 16:03:43;;;;;;;;;;;;;;;;;;110553;1277;8784;-74
2021/11/29 16:06:12;;;;;;;;;;;;;;;;;;110800;1276;9689;-74
2021/11/29 16:08:41;;;;;;;;;;;;;;;;;;110389;1276;8094;-74
2021/11/29 16:11:09;;;;;;;;;;;;;;;;;;110755;1276;8793;-74
2021/11/29 16:13:37;;;;;;;;;;;;;;;;;;110788;1277;9693;-74
2021/11/29 16:16:06;;;;;;;;;;;;;;;;;;110511;1277;7959;-74
2021/11/29 16:18:34;;;;;;;;;;;;;;;;;;110806;1277;8178;-74
2021/11/29 16:21:03;;;;;;;;;;;;;;;;;;110804;1277;8807;-74
2021/11/29 16:23:33;;;;;;;;;;;;;;;;;;110768;1275;9753;-74
2021/11/29 16:26:04;;;;;;;;;;;;;;;;;;110520;1276;8038;-74
2021/11/29 16:28:32;;;;;;;;;;;;;;;;;;110474;1278;9696;-74
2021/11/29 16:31:00;;;;;;;;;;;;;;;;;;110781;1275;8376;-74
2021/11/29 16:33:29;;;;;;;;;;;;;;;;;;110846;1276;8980;-75
2021/11/29 16:35:59;;;;;;;;;;;;;;;;;;110747;1277;8011;-74
2021/11/29 16:38:28;;;;;;;;;;;;;;;;;;110529;1277;8784;-74
2021/11/29 16:41:00;;;;;;;;;;;;;;;;;;110805;1275;9059;-75
2021/11/29 16:43:28;;;;;;;;;;;;;;;;;;110803;1277;8375;-74
2021/11/29 16:45:57;;;;;;;;;;;;;;;;;;110801;1275;9704;-73
2021/11/29 16:48:30;;;;;;;;;;;;;;;;;;110461;1278;8771;-74
2021/11/29 16:51:00;;;;;;;;;;;;;;;;;;110680;1275;7967;-74
2021/11/29 16:53:51;;;;;;;;;;;;;;;;;;110491;1278;7974;-74
2021/11/29 16:56:19;;;;;;;;;;;;;;;;;;110915;1275;9007;-74
2021/11/29 16:58:47;;;;;;;;;;;;;;;;;;110966;1274;8756;-74
2021/11/29 17:01:15;;;;;;;;;;;;;;;;;;110941;1276;7960;-74
2021/11/29 17:03:43;;;;;;;;;;;;;;;;;;110948;1273;9717;-73
2021/11/29 17:06:11;;;;;;;;;;;;;;;;;;110941;1276;8958;-74
2021/11/29 17:08:39;;;;;;;;;;;;;;;;;;110978;1275;9698;-73